sensor_id;sensor_type;location;lat;lon;timestamp;pressure;altitude;pressure_sealevel;temperature;humidity
58662;BME280;44432;49.786;22.760;2022-12-07T00:02:01;98875.09;;;2.13;88.35
58662;BME280;44432;49.786;22.760;2022-12-07T00:04:32;98868.55;;;2.11;88.23
58662;BME280;44432;49.786;22.760;2022-12-07T00:07:02;98869.98;;;2.10;88.58
58662;BME280;44432;49.786;22.760;2022-12-07T00:09:33;98872.32;;;2.11;88.51
58662;BME280;44432;49.786;22.760;2022-12-07T00:12:04;98867.38;;;2.10;88.47
58662;BME280;44432;49.786;22.760;2022-12-07T00:14:35;98872.23;;;2.11;88.49
58662;BME280;44432;49.786;22.760;2022-12-07T00:17:06;98871.73;;;2.10;88.50
58662;BME280;44432;49.786;22.760;2022-12-07T00:19:36;98873.89;;;2.10;88.45
58662;BME280;44432;49.786;22.760;2022-12-07T00:22:07;98874.08;;;2.09;88.30
58662;BME280;44432;49.786;22.760;2022-12-07T00:24:38;98876.23;;;2.10;88.78
58662;BME280;44432;49.786;22.760;2022-12-07T00:27:08;98877.38;;;2.09;88.53
58662;BME280;44432;49.786;22.760;2022-12-07T00:29:39;98878.45;;;2.12;88.66
58662;BME280;44432;49.786;22.760;2022-12-07T00:32:10;98880.77;;;2.13;88.70
58662;BME280;44432;49.786;22.760;2022-12-07T00:34:40;98881.91;;;2.14;88.31
58662;BME280;44432;49.786;22.760;2022-12-07T00:37:11;98883.66;;;2.15;88.50
58662;BME280;44432;49.786;22.760;2022-12-07T00:39:42;98886.23;;;2.17;88.56
58662;BME280;44432;49.786;22.760;2022-12-07T00:42:13;98886.81;;;2.18;88.48
58662;BME280;44432;49.786;22.760;2022-12-07T00:44:43;98889.90;;;2.18;88.26
58662;BME280;44432;49.786;22.760;2022-12-07T00:47:14;98887.88;;;2.19;88.11
58662;BME280;44432;49.786;22.760;2022-12-07T00:49:44;98889.21;;;2.20;88.00
58662;BME280;44432;49.786;22.760;2022-12-07T00:52:15;98888.01;;;2.21;88.08
58662;BME280;44432;49.786;22.760;2022-12-07T00:54:46;98888.65;;;2.22;88.23
58662;BME280;44432;49.786;22.760;2022-12-07T00:57:16;98885.10;;;2.22;88.10
58662;BME280;44432;49.786;22.760;2022-12-07T00:59:47;98887.58;;;2.22;87.96
58662;BME280;44432;49.786;22.760;2022-12-07T01:02:18;98889.27;;;2.23;88.23
58662;BME280;44432;49.786;22.760;2022-12-07T01:04:48;98887.45;;;2.22;88.28
58662;BME280;44432;49.786;22.760;2022-12-07T01:07:19;98887.35;;;2.22;87.78
58662;BME280;44432;49.786;22.760;2022-12-07T01:09:50;98885.66;;;2.22;88.36
58662;BME280;44432;49.786;22.760;2022-12-07T01:12:21;98881.27;;;2.23;88.04
58662;BME280;44432;49.786;22.760;2022-12-07T01:14:51;98884.96;;;2.24;87.88
58662;BME280;44432;49.786;22.760;2022-12-07T01:17:22;98882.95;;;2.23;88.09
58662;BME280;44432;49.786;22.760;2022-12-07T01:19:52;98881.81;;;2.24;88.19
58662;BME280;44432;49.786;22.760;2022-12-07T01:22:23;98880.68;;;2.22;88.06
58662;BME280;44432;49.786;22.760;2022-12-07T01:24:54;98877.04;;;2.20;87.80
58662;BME280;44432;49.786;22.760;2022-12-07T01:27:25;98875.23;;;2.19;87.96
58662;BME280;44432;49.786;22.760;2022-12-07T01:29:55;98878.13;;;2.17;87.69
58662;BME280;44432;49.786;22.760;2022-12-07T01:32:26;98876.67;;;2.16;87.86
58662;BME280;44432;49.786;22.760;2022-12-07T01:34:57;98874.59;;;2.14;88.12
58662;BME280;44432;49.786;22.760;2022-12-07T01:37:27;98869.78;;;2.12;87.90
58662;BME280;44432;49.786;22.760;2022-12-07T01:39:58;98867.73;;;2.10;87.81
58662;BME280;44432;49.786;22.760;2022-12-07T01:42:29;98864.94;;;2.08;87.55
58662;BME280;44432;49.786;22.760;2022-12-07T01:48:16;98861.22;;;2.02;87.99
58662;BME280;44432;49.786;22.760;2022-12-07T01:50:50;98862.04;;;2.01;88.07
58662;BME280;44432;49.786;22.760;2022-12-07T01:53:22;98863.51;;;2.00;87.90
58662;BME280;44432;49.786;22.760;2022-12-07T01:55:56;98859.70;;;2.00;88.11
58662;BME280;44432;49.786;22.760;2022-12-07T01:58:29;98860.08;;;2.01;88.06
58662;BME280;44432;49.786;22.760;2022-12-07T02:01:00;98857.41;;;2.02;88.19
58662;BME280;44432;49.786;22.760;2022-12-07T02:03:34;98852.73;;;2.02;87.86
58662;BME280;44432;49.786;22.760;2022-12-07T02:06:08;98848.27;;;2.02;88.27
58662;BME280;44432;49.786;22.760;2022-12-07T02:08:39;98848.89;;;2.02;88.15
58662;BME280;44432;49.786;22.760;2022-12-07T02:11:10;98852.23;;;2.03;87.88
58662;BME280;44432;49.786;22.760;2022-12-07T02:13:42;98850.05;;;2.04;88.15
58662;BME280;44432;49.786;22.760;2022-12-07T02:16:23;98853.56;;;2.05;88.23
58662;BME280;44432;49.786;22.760;2022-12-07T02:19:03;98849.39;;;2.07;88.12
58662;BME280;44432;49.786;22.760;2022-12-07T02:21:43;98849.28;;;2.09;88.28
58662;BME280;44432;49.786;22.760;2022-12-07T02:24:24;98846.31;;;2.11;88.35
58662;BME280;44432;49.786;22.760;2022-12-07T02:27:15;98843.48;;;2.11;87.87
58662;BME280;44432;49.786;22.760;2022-12-07T02:29:58;98844.23;;;2.12;88.11
58662;BME280;44432;49.786;22.760;2022-12-07T02:32:38;98839.55;;;2.11;87.82
58662;BME280;44432;49.786;22.760;2022-12-07T02:35:15;98840.94;;;2.12;87.95
58662;BME280;44432;49.786;22.760;2022-12-07T02:38:08;98834.06;;;2.09;87.72
58662;BME280;44432;49.786;22.760;2022-12-07T02:40:44;98843.11;;;2.06;87.83
58662;BME280;44432;49.786;22.760;2022-12-07T02:43:23;98840.20;;;2.00;87.86
58662;BME280;44432;49.786;22.760;2022-12-07T02:45:57;98837.54;;;2.00;87.97
58662;BME280;44432;49.786;22.760;2022-12-07T02:48:30;98838.26;;;1.98;88.01
58662;BME280;44432;49.786;22.760;2022-12-07T02:51:01;98836.46;;;1.98;88.39
58662;BME280;44432;49.786;22.760;2022-12-07T02:53:34;98834.28;;;2.01;88.17
58662;BME280;44432;49.786;22.760;2022-12-07T02:56:09;98835.70;;;2.04;88.24
58662;BME280;44432;49.786;22.760;2022-12-07T02:58:50;98837.38;;;2.07;88.52
58662;BME280;44432;49.786;22.760;2022-12-07T03:01:30;98836.29;;;2.12;88.37
58662;BME280;44432;49.786;22.760;2022-12-07T03:04:12;98833.73;;;2.16;88.37
58662;BME280;44432;49.786;22.760;2022-12-07T03:06:51;98831.38;;;2.20;88.34
58662;BME280;44432;49.786;22.760;2022-12-07T03:09:30;98831.12;;;2.24;88.06
58662;BME280;44432;49.786;22.760;2022-12-07T03:12:12;98829.67;;;2.27;87.99
58662;BME280;44432;49.786;22.760;2022-12-07T03:14:50;98831.39;;;2.31;88.42
58662;BME280;44432;49.786;22.760;2022-12-07T03:17:26;98834.14;;;2.33;87.75
58662;BME280;44432;49.786;22.760;2022-12-07T03:20:00;98833.36;;;2.34;87.69
58662;BME280;44432;49.786;22.760;2022-12-07T03:22:34;98833.61;;;2.35;87.67
58662;BME280;44432;49.786;22.760;2022-12-07T03:25:08;98836.98;;;2.35;87.86
58662;BME280;44432;49.786;22.760;2022-12-07T03:27:42;98840.43;;;2.39;87.83
58662;BME280;44432;49.786;22.760;2022-12-07T03:30:18;98840.22;;;2.41;87.72
58662;BME280;44432;49.786;22.760;2022-12-07T03:32:53;98836.93;;;2.42;87.67
58662;BME280;44432;49.786;22.760;2022-12-07T03:35:28;98836.48;;;2.43;87.64
58662;BME280;44432;49.786;22.760;2022-12-07T03:38:02;98837.41;;;2.44;87.81
58662;BME280;44432;49.786;22.760;2022-12-07T03:40:39;98835.38;;;2.47;87.67
58662;BME280;44432;49.786;22.760;2022-12-07T03:43:11;98835.91;;;2.48;87.47
58662;BME280;44432;49.786;22.760;2022-12-07T03:45:44;98832.05;;;2.49;87.52
58662;BME280;44432;49.786;22.760;2022-12-07T03:48:24;98827.61;;;2.49;87.34
58662;BME280;44432;49.786;22.760;2022-12-07T03:51:00;98830.71;;;2.52;87.52
58662;BME280;44432;49.786;22.760;2022-12-07T03:53:39;98831.59;;;2.54;87.60
58662;BME280;44432;49.786;22.760;2022-12-07T03:56:11;98830.08;;;2.55;87.43
58662;BME280;44432;49.786;22.760;2022-12-07T03:58:43;98826.44;;;2.53;87.25
58662;BME280;44432;49.786;22.760;2022-12-07T04:01:13;98830.44;;;2.55;87.67
58662;BME280;44432;49.786;22.760;2022-12-07T04:03:44;98826.80;;;2.55;87.29
58662;BME280;44432;49.786;22.760;2022-12-07T04:06:15;98821.77;;;2.53;87.21
58662;BME280;44432;49.786;22.760;2022-12-07T04:08:46;98822.98;;;2.55;87.44
58662;BME280;44432;49.786;22.760;2022-12-07T04:11:16;98826.02;;;2.54;87.50
58662;BME280;44432;49.786;22.760;2022-12-07T04:13:47;98824.97;;;2.54;87.35
58662;BME280;44432;49.786;22.760;2022-12-07T04:16:35;98827.33;;;2.53;87.64
58662;BME280;44432;49.786;22.760;2022-12-07T04:19:06;98826.12;;;2.53;87.68
58662;BME280;44432;49.786;22.760;2022-12-07T04:21:36;98829.73;;;2.53;87.89
58662;BME280;44432;49.786;22.760;2022-12-07T04:24:07;98822.25;;;2.52;87.54
58662;BME280;44432;49.786;22.760;2022-12-07T04:26:38;98820.41;;;2.48;87.21
58662;BME280;44432;49.786;22.760;2022-12-07T04:29:09;98817.42;;;2.46;87.30
58662;BME280;44432;49.786;22.760;2022-12-07T04:31:40;98811.95;;;2.42;87.43
58662;BME280;44432;49.786;22.760;2022-12-07T04:34:11;98810.91;;;2.42;87.46
58662;BME280;44432;49.786;22.760;2022-12-07T04:36:42;98814.15;;;2.44;87.83
58662;BME280;44432;49.786;22.760;2022-12-07T04:39:20;98815.45;;;2.45;87.71
58662;BME280;44432;49.786;22.760;2022-12-07T04:41:52;98814.40;;;2.46;87.87
58662;BME280;44432;49.786;22.760;2022-12-07T04:44:24;98814.82;;;2.47;88.07
58662;BME280;44432;49.786;22.760;2022-12-07T04:46:55;98813.13;;;2.47;87.58
58662;BME280;44432;49.786;22.760;2022-12-07T04:49:27;98811.95;;;2.50;87.69
58662;BME280;44432;49.786;22.760;2022-12-07T04:51:57;98809.75;;;2.50;88.07
58662;BME280;44432;49.786;22.760;2022-12-07T04:54:28;98803.38;;;2.49;88.07
58662;BME280;44432;49.786;22.760;2022-12-07T04:56:59;98806.83;;;2.49;87.86
58662;BME280;44432;49.786;22.760;2022-12-07T04:59:29;98804.71;;;2.49;87.68
58662;BME280;44432;49.786;22.760;2022-12-07T05:02:00;98802.02;;;2.48;87.88
58662;BME280;44432;49.786;22.760;2022-12-07T05:04:30;98796.99;;;2.50;87.76
58662;BME280;44432;49.786;22.760;2022-12-07T05:07:01;98795.14;;;2.49;88.17
58662;BME280;44432;49.786;22.760;2022-12-07T05:09:31;98791.11;;;2.48;87.67
58662;BME280;44432;49.786;22.760;2022-12-07T05:12:02;98795.42;;;2.45;87.63
58662;BME280;44432;49.786;22.760;2022-12-07T05:14:33;98790.33;;;2.43;87.75
58662;BME280;44432;49.786;22.760;2022-12-07T05:17:04;98787.63;;;2.40;87.61
58662;BME280;44432;49.786;22.760;2022-12-07T05:19:34;98785.40;;;2.39;87.70
58662;BME280;44432;49.786;22.760;2022-12-07T05:22:05;98783.37;;;2.35;87.87
58662;BME280;44432;49.786;22.760;2022-12-07T05:24:36;98779.14;;;2.34;87.94
58662;BME280;44432;49.786;22.760;2022-12-07T05:27:06;98775.46;;;2.33;87.98
58662;BME280;44432;49.786;22.760;2022-12-07T05:29:37;98772.71;;;2.31;87.98
58662;BME280;44432;49.786;22.760;2022-12-07T05:32:08;98776.38;;;2.26;87.80
58662;BME280;44432;49.786;22.760;2022-12-07T05:34:39;98776.97;;;2.21;87.82
58662;BME280;44432;49.786;22.760;2022-12-07T05:37:09;98776.66;;;2.16;87.70
58662;BME280;44432;49.786;22.760;2022-12-07T05:39:40;98772.56;;;2.11;87.98
58662;BME280;44432;49.786;22.760;2022-12-07T05:42:12;98779.05;;;2.07;88.10
58662;BME280;44432;49.786;22.760;2022-12-07T05:44:44;98779.55;;;2.04;88.05
58662;BME280;44432;49.786;22.760;2022-12-07T05:47:16;98780.80;;;2.04;88.22
58662;BME280;44432;49.786;22.760;2022-12-07T05:49:46;98782.68;;;2.04;88.19
58662;BME280;44432;49.786;22.760;2022-12-07T05:52:17;98784.44;;;2.06;88.48
58662;BME280;44432;49.786;22.760;2022-12-07T05:54:48;98788.19;;;2.08;88.44
58662;BME280;44432;49.786;22.760;2022-12-07T05:57:19;98785.13;;;2.08;88.33
58662;BME280;44432;49.786;22.760;2022-12-07T05:59:49;98786.50;;;2.09;87.99
58662;BME280;44432;49.786;22.760;2022-12-07T06:02:20;98785.30;;;2.08;88.06
58662;BME280;44432;49.786;22.760;2022-12-07T06:04:50;98785.91;;;2.09;88.09
58662;BME280;44432;49.786;22.760;2022-12-07T06:07:21;98786.23;;;2.09;88.07
58662;BME280;44432;49.786;22.760;2022-12-07T06:09:52;98786.34;;;2.10;88.31
58662;BME280;44432;49.786;22.760;2022-12-07T06:12:22;98788.37;;;2.12;87.95
58662;BME280;44432;49.786;22.760;2022-12-07T06:15:08;98783.58;;;2.14;88.28
58662;BME280;44432;49.786;22.760;2022-12-07T06:17:39;98786.49;;;2.16;88.15
58662;BME280;44432;49.786;22.760;2022-12-07T06:20:10;98786.39;;;2.19;88.28
58662;BME280;44432;49.786;22.760;2022-12-07T06:22:41;98786.83;;;2.21;88.23
58662;BME280;44432;49.786;22.760;2022-12-07T06:25:11;98787.44;;;2.23;88.17
58662;BME280;44432;49.786;22.760;2022-12-07T06:27:42;98786.36;;;2.24;88.10
58662;BME280;44432;49.786;22.760;2022-12-07T06:30:13;98788.20;;;2.27;87.98
58662;BME280;44432;49.786;22.760;2022-12-07T06:32:44;98786.20;;;2.30;87.84
58662;BME280;44432;49.786;22.760;2022-12-07T06:35:15;98788.59;;;2.33;88.10
58662;BME280;44432;49.786;22.760;2022-12-07T06:37:46;98785.70;;;2.37;88.33
58662;BME280;44432;49.786;22.760;2022-12-07T06:40:16;98784.27;;;2.41;87.95
58662;BME280;44432;49.786;22.760;2022-12-07T06:42:47;98784.34;;;2.42;87.88
58662;BME280;44432;49.786;22.760;2022-12-07T06:45:18;98783.56;;;2.46;87.61
58662;BME280;44432;49.786;22.760;2022-12-07T06:47:49;98781.11;;;2.47;87.75
58662;BME280;44432;49.786;22.760;2022-12-07T06:50:20;98777.45;;;2.51;87.47
58662;BME280;44432;49.786;22.760;2022-12-07T06:52:51;98776.45;;;2.53;87.74
58662;BME280;44432;49.786;22.760;2022-12-07T06:55:22;98781.34;;;2.57;87.76
58662;BME280;44432;49.786;22.760;2022-12-07T06:57:53;98785.41;;;2.61;87.38
58662;BME280;44432;49.786;22.760;2022-12-07T07:00:24;98788.48;;;2.65;87.61
58662;BME280;44432;49.786;22.760;2022-12-07T07:02:55;98787.97;;;2.70;87.76
58662;BME280;44432;49.786;22.760;2022-12-07T07:05:25;98786.50;;;2.75;87.82
58662;BME280;44432;49.786;22.760;2022-12-07T07:07:56;98790.36;;;2.79;87.25
58662;BME280;44432;49.786;22.760;2022-12-07T07:10:27;98791.58;;;2.83;87.43
58662;BME280;44432;49.786;22.760;2022-12-07T07:12:57;98787.85;;;2.88;87.43
58662;BME280;44432;49.786;22.760;2022-12-07T07:15:28;98790.36;;;2.92;87.12
58662;BME280;44432;49.786;22.760;2022-12-07T07:17:59;98787.06;;;2.94;86.94
58662;BME280;44432;49.786;22.760;2022-12-07T07:20:30;98788.03;;;2.94;86.80
58662;BME280;44432;49.786;22.760;2022-12-07T07:23:01;98786.89;;;2.96;87.00
58662;BME280;44432;49.786;22.760;2022-12-07T07:25:32;98789.75;;;3.00;86.84
58662;BME280;44432;49.786;22.760;2022-12-07T07:28:03;98791.23;;;3.02;86.86
58662;BME280;44432;49.786;22.760;2022-12-07T07:30:34;98790.47;;;3.04;86.93
58662;BME280;44432;49.786;22.760;2022-12-07T07:33:05;98790.02;;;3.06;86.84
58662;BME280;44432;49.786;22.760;2022-12-07T07:35:36;98790.66;;;3.08;86.57
58662;BME280;44432;49.786;22.760;2022-12-07T07:38:06;98791.20;;;3.09;86.69
58662;BME280;44432;49.786;22.760;2022-12-07T07:40:37;98787.92;;;3.11;86.63
58662;BME280;44432;49.786;22.760;2022-12-07T07:43:08;98783.36;;;3.12;86.63
58662;BME280;44432;49.786;22.760;2022-12-07T07:45:38;98786.76;;;3.14;86.50
58662;BME280;44432;49.786;22.760;2022-12-07T07:48:09;98783.84;;;3.16;86.64
58662;BME280;44432;49.786;22.760;2022-12-07T07:50:40;98786.66;;;3.18;86.37
58662;BME280;44432;49.786;22.760;2022-12-07T07:53:10;98781.91;;;3.20;86.68
58662;BME280;44432;49.786;22.760;2022-12-07T07:55:41;98783.36;;;3.23;86.42
58662;BME280;44432;49.786;22.760;2022-12-07T07:58:11;98780.31;;;3.24;86.11
58662;BME280;44432;49.786;22.760;2022-12-07T08:00:42;98776.25;;;3.23;86.02
58662;BME280;44432;49.786;22.760;2022-12-07T08:03:13;98779.81;;;3.27;85.97
58662;BME280;44432;49.786;22.760;2022-12-07T08:05:43;98783.56;;;3.31;86.13
58662;BME280;44432;49.786;22.760;2022-12-07T08:08:14;98783.95;;;3.36;86.11
58662;BME280;44432;49.786;22.760;2022-12-07T08:10:44;98783.65;;;3.40;86.03
58662;BME280;44432;49.786;22.760;2022-12-07T08:13:16;98782.94;;;3.43;86.05
58662;BME280;44432;49.786;22.760;2022-12-07T08:15:47;98785.62;;;3.45;85.79
58662;BME280;44432;49.786;22.760;2022-12-07T08:18:18;98791.65;;;3.49;85.55
58662;BME280;44432;49.786;22.760;2022-12-07T08:20:49;98790.45;;;3.51;85.76
58662;BME280;44432;49.786;22.760;2022-12-07T08:23:19;98791.52;;;3.55;85.49
58662;BME280;44432;49.786;22.760;2022-12-07T08:25:50;98790.83;;;3.58;85.22
58662;BME280;44432;49.786;22.760;2022-12-07T08:28:20;98792.59;;;3.61;84.99
58662;BME280;44432;49.786;22.760;2022-12-07T08:30:51;98796.83;;;3.65;85.03
58662;BME280;44432;49.786;22.760;2022-12-07T08:33:21;98797.02;;;3.71;85.13
58662;BME280;44432;49.786;22.760;2022-12-07T08:35:52;98800.30;;;3.79;84.99
58662;BME280;44432;49.786;22.760;2022-12-07T08:38:23;98799.19;;;3.85;84.94
58662;BME280;44432;49.786;22.760;2022-12-07T08:40:56;98797.27;;;3.89;84.94
58662;BME280;44432;49.786;22.760;2022-12-07T08:43:27;98799.93;;;3.97;84.97
58662;BME280;44432;49.786;22.760;2022-12-07T08:46:06;98805.60;;;4.00;84.90
58662;BME280;44432;49.786;22.760;2022-12-07T08:48:39;98805.48;;;4.01;84.69
58662;BME280;44432;49.786;22.760;2022-12-07T08:51:11;98804.70;;;4.05;84.71
58662;BME280;44432;49.786;22.760;2022-12-07T08:53:42;98805.34;;;4.05;84.54
58662;BME280;44432;49.786;22.760;2022-12-07T08:56:13;98804.78;;;4.05;84.44
58662;BME280;44432;49.786;22.760;2022-12-07T08:58:44;98803.77;;;4.08;84.61
58662;BME280;44432;49.786;22.760;2022-12-07T09:01:14;98800.35;;;4.10;84.38
58662;BME280;44432;49.786;22.760;2022-12-07T09:03:45;98805.80;;;4.13;84.10
58662;BME280;44432;49.786;22.760;2022-12-07T09:06:16;98801.33;;;4.15;83.90
58662;BME280;44432;49.786;22.760;2022-12-07T09:08:49;98804.42;;;4.15;84.06
58662;BME280;44432;49.786;22.760;2022-12-07T09:11:20;98803.54;;;4.17;83.99
58662;BME280;44432;49.786;22.760;2022-12-07T09:13:51;98800.85;;;4.17;84.00
58662;BME280;44432;49.786;22.760;2022-12-07T09:16:21;98798.21;;;4.19;83.85
58662;BME280;44432;49.786;22.760;2022-12-07T09:18:52;98796.95;;;4.18;83.67
58662;BME280;44432;49.786;22.760;2022-12-07T09:21:23;98795.11;;;4.18;83.62
58662;BME280;44432;49.786;22.760;2022-12-07T09:23:53;98792.33;;;4.16;83.19
58662;BME280;44432;49.786;22.760;2022-12-07T09:26:24;98798.00;;;4.13;83.06
58662;BME280;44432;49.786;22.760;2022-12-07T09:28:55;98794.28;;;4.10;82.96
58662;BME280;44432;49.786;22.760;2022-12-07T09:31:25;98795.00;;;4.07;82.55
58662;BME280;44432;49.786;22.760;2022-12-07T09:33:57;98799.10;;;4.04;82.54
58662;BME280;44432;49.786;22.760;2022-12-07T09:36:29;98796.65;;;4.01;82.32
58662;BME280;44432;49.786;22.760;2022-12-07T09:39:01;98794.99;;;4.00;82.51
58662;BME280;44432;49.786;22.760;2022-12-07T09:41:34;98794.16;;;4.01;82.63
58662;BME280;44432;49.786;22.760;2022-12-07T09:44:10;98792.38;;;4.03;82.50
58662;BME280;44432;49.786;22.760;2022-12-07T09:46:44;98789.88;;;3.99;82.27
58662;BME280;44432;49.786;22.760;2022-12-07T09:49:18;98790.48;;;4.00;82.24
58662;BME280;44432;49.786;22.760;2022-12-07T09:51:58;98790.29;;;4.00;82.21
58662;BME280;44432;49.786;22.760;2022-12-07T09:54:30;98783.34;;;4.00;81.95
58662;BME280;44432;49.786;22.760;2022-12-07T09:57:01;98786.98;;;4.01;82.04
58662;BME280;44432;49.786;22.760;2022-12-07T09:59:31;98786.99;;;4.03;82.02
58662;BME280;44432;49.786;22.760;2022-12-07T10:02:22;98784.66;;;4.03;82.08
58662;BME280;44432;49.786;22.760;2022-12-07T10:04:54;98787.70;;;4.04;82.01
58662;BME280;44432;49.786;22.760;2022-12-07T10:07:25;98783.63;;;4.06;81.86
58662;BME280;44432;49.786;22.760;2022-12-07T10:09:56;98782.90;;;4.06;81.91
58662;BME280;44432;49.786;22.760;2022-12-07T10:12:26;98783.58;;;4.09;81.65
58662;BME280;44432;49.786;22.760;2022-12-07T10:15:01;98785.30;;;4.11;81.68
58662;BME280;44432;49.786;22.760;2022-12-07T10:24:17;98778.55;;;4.13;81.17
58662;BME280;44432;49.786;22.760;2022-12-07T10:26:52;98781.35;;;4.15;81.35
58662;BME280;44432;49.786;22.760;2022-12-07T10:29:22;98778.15;;;4.18;81.34
58662;BME280;44432;49.786;22.760;2022-12-07T10:31:56;98780.56;;;4.22;81.56
58662;BME280;44432;49.786;22.760;2022-12-07T10:34:29;98776.38;;;4.28;81.56
58662;BME280;44432;49.786;22.760;2022-12-07T10:37:16;98775.46;;;4.33;81.54
58662;BME280;44432;49.786;22.760;2022-12-07T10:39:49;98771.47;;;4.36;80.99
58662;BME280;44432;49.786;22.760;2022-12-07T10:42:20;98778.33;;;4.41;81.32
58662;BME280;44432;49.786;22.760;2022-12-07T10:45:07;98775.99;;;4.46;81.05
58662;BME280;44432;49.786;22.760;2022-12-07T10:47:46;98770.29;;;4.50;81.07
58662;BME280;44432;49.786;22.760;2022-12-07T10:50:32;98771.33;;;4.54;81.03
58662;BME280;44432;49.786;22.760;2022-12-07T10:53:26;98769.63;;;4.60;81.00
58662;BME280;44432;49.786;22.760;2022-12-07T10:56:06;98770.83;;;4.64;80.93
58662;BME280;44432;49.786;22.760;2022-12-07T10:58:55;98773.25;;;4.69;80.84
58662;BME280;44432;49.786;22.760;2022-12-07T11:01:33;98766.83;;;4.71;80.42
58662;BME280;44432;49.786;22.760;2022-12-07T11:04:20;98765.59;;;4.71;80.44
58662;BME280;44432;49.786;22.760;2022-12-07T11:07:00;98772.02;;;4.75;80.46
58662;BME280;44432;49.786;22.760;2022-12-07T11:09:51;98770.64;;;4.78;80.12
58662;BME280;44432;49.786;22.760;2022-12-07T11:12:37;98769.73;;;4.80;80.29
58662;BME280;44432;49.786;22.760;2022-12-07T11:15:19;98767.86;;;4.82;80.25
58662;BME280;44432;49.786;22.760;2022-12-07T11:17:56;98764.92;;;4.82;80.05
58662;BME280;44432;49.786;22.760;2022-12-07T11:20:39;98769.27;;;4.81;79.94
58662;BME280;44432;49.786;22.760;2022-12-07T11:23:21;98770.33;;;4.79;80.08
58662;BME280;44432;49.786;22.760;2022-12-07T11:26:04;98766.00;;;4.76;80.08
58662;BME280;44432;49.786;22.760;2022-12-07T11:28:47;98771.60;;;4.73;79.85
58662;BME280;44432;49.786;22.760;2022-12-07T11:31:28;98770.24;;;4.70;79.91
58662;BME280;44432;49.786;22.760;2022-12-07T11:34:10;98770.42;;;4.67;80.00
58662;BME280;44432;49.786;22.760;2022-12-07T11:36:45;98771.29;;;4.66;80.14
58662;BME280;44432;49.786;22.760;2022-12-07T11:39:25;98768.84;;;4.63;79.82
58662;BME280;44432;49.786;22.760;2022-12-07T11:42:03;98767.55;;;4.58;79.91
58662;BME280;44432;49.786;22.760;2022-12-07T11:44:44;98768.06;;;4.57;79.97
58662;BME280;44432;49.786;22.760;2022-12-07T11:47:20;98768.98;;;4.59;79.95
58662;BME280;44432;49.786;22.760;2022-12-07T11:49:56;98769.45;;;4.58;79.86
58662;BME280;44432;49.786;22.760;2022-12-07T11:52:43;98770.52;;;4.56;79.99
58662;BME280;44432;49.786;22.760;2022-12-07T11:55:21;98775.85;;;4.56;80.19
58662;BME280;44432;49.786;22.760;2022-12-07T11:58:01;98776.05;;;4.54;79.81
58662;BME280;44432;49.786;22.760;2022-12-07T12:00:34;98769.46;;;4.52;80.04
58662;BME280;44432;49.786;22.760;2022-12-07T12:03:11;98773.41;;;4.53;80.03
58662;BME280;44432;49.786;22.760;2022-12-07T12:05:43;98778.34;;;4.51;79.89
58662;BME280;44432;49.786;22.760;2022-12-07T12:08:17;98773.20;;;4.52;80.07
58662;BME280;44432;49.786;22.760;2022-12-07T12:10:58;98774.46;;;4.53;80.07
58662;BME280;44432;49.786;22.760;2022-12-07T12:13:51;98769.20;;;4.50;79.87
58662;BME280;44432;49.786;22.760;2022-12-07T12:16:42;98773.20;;;4.51;79.93
58662;BME280;44432;49.786;22.760;2022-12-07T12:19:35;98776.77;;;4.47;79.35
58662;BME280;44432;49.786;22.760;2022-12-07T12:22:14;98778.10;;;4.43;79.49
58662;BME280;44432;49.786;22.760;2022-12-07T12:24:51;98775.63;;;4.40;79.66
58662;BME280;44432;49.786;22.760;2022-12-07T12:27:26;98771.27;;;4.43;79.78
58662;BME280;44432;49.786;22.760;2022-12-07T12:30:00;98773.04;;;4.45;79.75
58662;BME280;44432;49.786;22.760;2022-12-07T12:32:38;98770.52;;;4.48;79.82
58662;BME280;44432;49.786;22.760;2022-12-07T12:35:33;98771.40;;;4.49;80.06
58662;BME280;44432;49.786;22.760;2022-12-07T12:38:29;98769.77;;;4.51;80.10
58662;BME280;44432;49.786;22.760;2022-12-07T12:41:03;98770.89;;;4.53;79.97
58662;BME280;44432;49.786;22.760;2022-12-07T12:43:51;98769.05;;;4.56;80.21
58662;BME280;44432;49.786;22.760;2022-12-07T12:46:49;98771.04;;;4.56;79.78
58662;BME280;44432;49.786;22.760;2022-12-07T12:49:43;98770.84;;;4.49;79.57
58662;BME280;44432;49.786;22.760;2022-12-07T12:55:24;98783.70;;;4.44;79.64
58662;BME280;44432;49.786;22.760;2022-12-07T12:58:30;98782.46;;;4.41;79.86
58662;BME280;44432;49.786;22.760;2022-12-07T13:04:37;98788.29;;;4.31;79.80
58662;BME280;44432;49.786;22.760;2022-12-07T13:07:52;98784.84;;;4.27;79.95
58662;BME280;44432;49.786;22.760;2022-12-07T13:10:42;98785.39;;;4.23;79.90
58662;BME280;44432;49.786;22.760;2022-12-07T13:13:32;98786.29;;;4.20;79.84
58662;BME280;44432;49.786;22.760;2022-12-07T13:22:53;98783.90;;;4.12;80.16
58662;BME280;44432;49.786;22.760;2022-12-07T13:25:31;98789.61;;;4.10;79.86
58662;BME280;44432;49.786;22.760;2022-12-07T13:28:14;98794.73;;;4.08;79.74
58662;BME280;44432;49.786;22.760;2022-12-07T13:30:53;98793.23;;;4.03;79.75
58662;BME280;44432;49.786;22.760;2022-12-07T13:33:29;98791.86;;;3.97;79.52
58662;BME280;44432;49.786;22.760;2022-12-07T13:36:00;98794.89;;;3.92;79.69
58662;BME280;44432;49.786;22.760;2022-12-07T13:38:33;98792.28;;;3.89;79.94
58662;BME280;44432;49.786;22.760;2022-12-07T13:41:15;98792.95;;;3.87;80.22
58662;BME280;44432;49.786;22.760;2022-12-07T13:43:50;98794.48;;;3.88;80.02
58662;BME280;44432;49.786;22.760;2022-12-07T13:46:27;98797.69;;;3.87;80.06
58662;BME280;44432;49.786;22.760;2022-12-07T13:49:00;98797.98;;;3.85;80.10
58662;BME280;44432;49.786;22.760;2022-12-07T13:51:36;98798.14;;;3.82;79.96
58662;BME280;44432;49.786;22.760;2022-12-07T13:54:12;98799.49;;;3.78;79.80
58662;BME280;44432;49.786;22.760;2022-12-07T13:56:46;98800.95;;;3.76;80.01
58662;BME280;44432;49.786;22.760;2022-12-07T13:59:20;98802.86;;;3.72;79.70
58662;BME280;44432;49.786;22.760;2022-12-07T14:01:53;98802.44;;;3.68;79.82